Time;durP1;ratioP1;P1;durP2;ratioP2;P2;SDS_P1;SDS_P2;PMS_P1;PMS_P2;Temp;Humidity;BMP_temperature;BMP_pressure;BME280_temperature;BME280_humidity;BME280_pressure;Samples;Min_cycle;Max_cycle;Signal;HPM_P1;HPM_P2
2021/05/29 07:06:12;;;;;;;8.90;4.78;;;;;;;11.54;80.46;102037.84;5479116;23;20066;-84
2021/05/29 07:08:38;;;;;;;5.72;3.55;;;;;;;11.52;80.30;102039.81;4955295;28;20746;-84
2021/05/29 08:41:15;;;;;;;7.07;4.00;;;;;;;13.75;73.49;102117.81;6092808;23;20077;-79
2021/05/29 08:43:42;;;;;;;8.38;4.40;;;;;;;13.41;73.04;102054.66;6066282;23;20081;-80
2021/05/29 08:46:08;;;;;;;6.53;3.83;;;;;;;13.63;72.54;102082.97;6067540;23;20153;-80
2021/05/29 08:48:33;;;;;;;7.25;4.30;;;;;;;13.93;71.59;102096.91;6043006;23;20669;-80
2021/05/29 08:51:22;;;;;;;10.85;4.22;;;;;;;14.29;71.64;102107.47;6066143;23;20006;-80
2021/05/29 08:53:50;;;;;;;10.95;4.55;;;;;;;14.66;71.18;102120.53;6046891;23;20009;-80
2021/05/29 08:56:17;;;;;;;12.07;5.13;;;;;;;14.79;70.81;102120.03;6066081;23;20033;-79
2021/05/29 08:58:42;;;;;;;9.55;3.63;;;;;;;15.00;69.63;102121.34;6041455;23;20733;-80
2021/05/29 09:01:09;;;;;;;7.25;4.57;;;;;;;15.08;69.63;102108.66;6042770;23;20512;-78
2021/05/29 09:03:38;;;;;;;8.32;4.72;;;;;;;15.31;69.27;102116.03;6121245;23;20064;-79
2021/05/29 09:06:04;;;;;;;9.98;6.38;;;;;;;15.49;68.60;102122.06;6094997;23;20439;-81
2021/05/29 09:08:29;;;;;;;10.77;6.85;;;;;;;15.68;68.19;102117.25;6070572;23;20002;-78
2021/05/29 09:10:57;;;;;;;9.70;4.40;;;;;;;15.94;68.03;102123.25;6071332;23;20073;-78
2021/05/29 09:13:24;;;;;;;9.27;4.05;;;;;;;16.19;67.90;102131.25;6033543;23;20082;-80
2021/05/29 09:16:05;;;;;;;5.85;3.22;;;;;;;16.35;66.49;102124.84;5738975;23;74389;-77
2021/05/29 09:18:48;;;;;;;6.35;2.83;;;;;;;16.40;65.20;102120.56;6002634;23;19999;-81
2021/05/29 09:21:30;;;;;;;6.32;3.13;;;;;;;16.45;64.79;102118.16;6062554;23;20066;-76
2021/05/29 09:24:15;;;;;;;5.78;3.08;;;;;;;16.43;64.29;102124.78;6014439;23;20011;-75
2021/05/29 09:26:54;;;;;;;5.68;2.90;;;;;;;16.49;63.68;102121.38;6036716;23;20002;-80
2021/05/29 09:29:22;;;;;;;7.68;4.88;;;;;;;16.68;63.13;102131.72;6036593;23;20019;-79
2021/05/29 09:31:53;;;;;;;6.45;3.00;;;;;;;16.86;63.10;102134.16;6037125;23;20043;-77
2021/05/29 09:34:35;;;;;;;7.68;3.30;;;;;;;16.82;62.27;102130.09;6064671;23;20009;-83
2021/05/29 09:37:06;;;;;;;7.25;3.15;;;;;;;16.91;62.29;102136.31;6046290;23;20333;-82
2021/05/29 09:39:32;;;;;;;8.93;3.80;;;;;;;17.06;61.37;102134.44;6045607;23;20011;-83
2021/05/29 10:38:52;;;;;;;3.08;1.30;;;;;;;18.39;50.31;102099.94;6018499;23;20020;-80
2021/05/29 10:41:57;;;;;;;3.20;1.10;;;;;;;18.45;51.04;102132.72;6012092;23;20034;-80
2021/05/29 10:44:36;;;;;;;2.97;1.50;;;;;;;18.50;50.61;102143.03;5986373;23;20012;-78
2021/05/29 10:47:18;;;;;;;2.38;1.40;;;;;;;19.17;50.45;102135.44;6009216;23;20007;-78
2021/05/29 10:49:47;;;;;;;3.65;1.40;;;;;;;19.63;50.83;102129.38;5984676;23;20024;-78
2021/05/29 10:52:31;;;;;;;4.68;1.60;;;;;;;19.65;48.97;102130.03;6008129;23;20018;-77
2021/05/29 10:55:11;;;;;;;3.13;1.30;;;;;;;19.70;49.00;102130.28;6005030;23;20008;-77
2021/05/29 10:57:49;;;;;;;2.40;1.48;;;;;;;19.75;48.31;102136.81;6007589;23;20091;-77
2021/05/29 11:00:43;;;;;;;3.40;1.40;;;;;;;19.94;48.10;102134.38;6007583;23;20016;-77
2021/05/29 11:03:21;;;;;;;2.53;1.42;;;;;;;19.26;48.25;102140.50;6008393;23;20003;-77
2021/05/29 11:05:57;;;;;;;2.58;1.05;;;;;;;19.21;49.09;102137.56;6008311;23;20000;-77
2021/05/29 11:08:48;;;;;;;2.92;1.13;;;;;;;19.48;49.88;102143.19;5980492;23;20011;-78
2021/05/29 11:11:35;;;;;;;3.70;1.27;;;;;;;19.62;47.83;102146.81;6006053;23;20848;-77
2021/05/29 11:14:13;;;;;;;3.88;1.10;;;;;;;19.10;47.47;102149.00;6006341;23;20011;-78
2021/05/29 11:16:51;;;;;;;2.17;1.30;;;;;;;18.74;47.69;102149.94;6006075;23;20422;-77
2021/05/29 11:19:28;;;;;;;4.40;1.50;;;;;;;18.61;49.84;102153.38;5984945;23;20406;-79
2021/05/29 11:22:13;;;;;;;2.22;1.38;;;;;;;19.00;50.04;102146.63;5988876;23;20018;-78
2021/05/29 11:24:48;;;;;;;2.65;1.30;;;;;;;19.42;49.90;102143.97;5989295;23;20004;-79
2021/05/29 11:27:18;;;;;;;2.40;1.30;;;;;;;19.50;49.45;102146.53;6016484;23;20083;-78
2021/05/29 11:30:08;;;;;;;1.90;1.15;;;;;;;20.12;46.90;102144.75;6015234;23;20035;-78
2021/05/29 11:32:45;;;;;;;2.47;1.15;;;;;;;19.85;45.82;102150.09;6015841;23;20342;-79
2021/05/29 11:35:17;;;;;;;2.78;1.08;;;;;;;19.86;45.66;102151.78;6014003;23;20457;-79
2021/05/29 11:38:06;;;;;;;1.83;1.23;;;;;;;19.61;46.11;102148.72;6013916;23;20456;-79
2021/05/29 11:40:51;;;;;;;2.83;1.40;;;;;;;20.10;47.20;102141.38;6014621;23;19999;-78
2021/05/29 11:43:20;;;;;;;2.22;1.30;;;;;;;20.46;45.49;102154.69;5970313;23;20052;-78
2021/05/29 11:45:45;;;;;;;1.92;1.10;;;;;;;20.01;45.94;102148.91;5991230;23;20051;-79
2021/05/29 11:48:11;;;;;;;3.47;1.30;;;;;;;20.41;45.29;102149.84;5989523;23;20004;-79
2021/05/29 11:50:40;;;;;;;2.10;1.05;;;;;;;20.66;44.09;102152.00;5989506;23;20010;-79
2021/05/29 11:53:10;;;;;;;3.67;1.48;;;;;;;20.88;44.58;102147.19;5989240;23;20004;-80
2021/05/29 11:55:52;;;;;;;3.63;1.70;;;;;;;20.30;44.21;102149.63;5986272;23;20007;-80
2021/05/29 11:58:18;;;;;;;3.10;1.30;;;;;;;19.77;45.58;102151.13;5986349;23;20027;-79
2021/05/29 12:01:00;;;;;;;4.00;1.40;;;;;;;19.60;47.40;102152.47;5965175;23;20043;-79
2021/05/29 12:03:59;;;;;;;2.83;1.52;;;;;;;19.44;48.36;102150.91;5963804;23;20018;-79
2021/05/29 12:06:57;;;;;;;2.70;1.80;;;;;;;19.46;48.84;102158.91;5969080;23;20004;-79
2021/05/29 12:09:40;;;;;;;3.05;1.30;;;;;;;19.08;48.06;102162.00;5988304;23;20007;-80
2021/05/29 12:12:08;;;;;;;2.38;1.20;;;;;;;18.79;48.54;102154.84;6013759;23;20011;-79
2021/05/29 12:14:41;;;;;;;4.30;1.77;;;;;;;18.89;49.47;102161.66;5989245;23;20044;-80
2021/05/29 12:17:17;;;;;;;4.32;1.55;;;;;;;19.54;48.65;102165.03;5987633;23;20007;-80
2021/05/29 12:19:43;;;;;;;1.92;1.17;;;;;;;19.85;47.46;102168.38;5964379;23;20018;-79
2021/05/29 12:22:10;;;;;;;2.45;1.48;;;;;;;20.12;46.96;102170.16;6013634;23;20018;-78
2021/05/29 12:24:54;;;;;;;2.90;1.40;;;;;;;19.86;48.03;102159.97;6014482;23;20004;-79
2021/05/29 12:27:22;;;;;;;2.47;1.40;;;;;;;19.57;47.70;102166.50;5989622;23;20027;-78
2021/05/29 12:29:48;;;;;;;3.10;1.25;;;;;;;19.10;48.02;102166.22;5965830;23;20008;-80
2021/05/29 12:32:40;;;;;;;2.90;1.33;;;;;;;18.84;49.76;102169.56;5987828;23;20007;-79
2021/05/29 12:35:08;;;;;;;2.00;1.20;;;;;;;18.72;50.70;102176.53;5987609;23;20399;-78
2021/05/29 12:37:35;;;;;;;2.78;1.25;;;;;;;18.61;51.30;102182.53;5987189;23;20231;-80
2021/05/29 12:40:08;;;;;;;2.17;1.10;;;;;;;18.63;51.25;102177.72;5988463;23;20379;-79
2021/05/29 12:42:41;;;;;;;5.93;2.28;;;;;;;18.80;51.42;102186.50;5988407;23;20027;-79
2021/05/29 12:45:16;;;;;;;;;;;;;;;19.25;50.18;102179.72;5989015;23;20457;-80
2021/05/29 12:47:52;;;;;;;2.22;1.40;;;;;;;20.24;47.00;102178.56;5987722;23;19985;-80
2021/05/29 12:50:17;;;;;;;2.80;0.98;;;;;;;20.52;44.68;102191.28;5988132;23;20008;-79
2021/05/29 12:52:43;;;;;;;1.48;0.90;;;;;;;20.80;44.96;102191.16;5987055;23;20014;-79
2021/05/29 12:55:18;;;;;;;1.67;0.90;;;;;;;20.97;43.57;102191.56;5965114;23;20099;-79
2021/05/29 12:57:44;;;;;;;2.00;1.30;;;;;;;20.97;43.64;102181.47;5987783;23;20007;-78
2021/05/29 13:00:24;;;;;;;2.63;1.35;;;;;;;21.13;45.04;102185.66;5988140;23;20042;-79
2021/05/29 13:09:05;;;;;;;1.70;1.10;;;;;;;21.07;43.90;102190.09;5908462;24;20005;-81
2021/05/29 13:11:32;;;;;;;1.48;1.17;;;;;;;21.16;43.68;102209.00;5881660;24;20008;-81
2021/05/29 13:14:05;;;;;;;1.52;1.10;;;;;;;20.72;44.28;102214.06;5954540;23;20038;-80
2021/05/29 13:16:50;;;;;;;;;;;;;;;20.15;44.92;102207.13;6009159;23;20063;-82
2021/05/29 13:19:15;;;;;;;2.45;1.20;;;;;;;19.95;45.65;102207.91;5983367;23;19917;-81
2021/05/29 13:22:19;;;;;;;5.15;2.05;;;;;;;20.35;46.00;102208.06;5970829;23;20019;-81
2021/05/29 13:28:53;;;;;;;2.63;0.93;;;;;;;19.32;46.11;102166.16;5972601;23;20062;-81
2021/05/29 15:29:22;;;;;;;;;;;;;;;;;;;;;
2021/05/29 16:54:18;;;;;;;2.63;1.20;;;;;;;24.20;33.10;102170.72;6035311;23;20030;-72
2021/05/29 16:56:43;;;;;;;2.47;1.40;;;;;;;24.56;32.65;102203.63;6035459;23;20007;-73
2021/05/29 16:59:09;;;;;;;2.95;1.40;;;;;;;25.09;31.67;102206.63;6034740;23;20067;-73
2021/05/29 17:01:35;;;;;;;2.80;1.00;;;;;;;25.69;31.51;102211.03;6035717;23;20429;-73
2021/05/29 17:04:00;;;;;;;2.35;1.40;;;;;;;26.09;30.50;102206.44;6035450;23;20003;-72
2021/05/29 17:06:26;;;;;;;2.47;1.30;;;;;;;26.12;30.89;102207.88;6035755;23;20038;-72
2021/05/29 17:08:54;;;;;;;2.50;1.52;;;;;;;26.10;30.77;102215.53;6034988;23;20007;-72
2021/05/29 17:11:28;;;;;;;2.80;1.60;;;;;;;25.64;31.76;102207.13;6035553;23;20059;-78
2021/05/29 17:13:53;;;;;;;2.88;1.50;;;;;;;25.46;32.79;102218.28;6035355;23;20007;-72
2021/05/29 17:16:19;;;;;;;2.17;1.30;;;;;;;24.60;33.68;102217.75;6035170;23;20010;-73
2021/05/29 17:18:44;;;;;;;3.67;1.58;;;;;;;23.46;35.45;102214.66;6035123;23;20378;-73
2021/05/29 17:21:09;;;;;;;2.55;1.70;;;;;;;22.81;36.62;102206.75;6010340;23;20007;-73
2021/05/29 17:23:38;;;;;;;3.13;1.50;;;;;;;22.37;38.24;102214.84;6035460;23;20011;-74
2021/05/29 17:26:06;;;;;;;3.42;1.70;;;;;;;22.07;38.71;102210.94;6010605;23;20006;-72
2021/05/29 17:28:32;;;;;;;3.10;1.15;;;;;;;21.82;39.78;102219.03;6009689;23;20452;-74
2021/05/29 17:30:58;;;;;;;2.55;1.70;;;;;;;22.26;38.85;102210.06;6010061;23;20011;-73
2021/05/29 18:41:53;;;;;;;4.07;2.20;;;;;;;18.68;47.02;102227.88;6035371;23;21121;-83
2021/05/29 18:44:19;;;;;;;3.03;1.70;;;;;;;18.74;46.64;102223.53;5979421;24;20028;-79
2021/05/29 18:46:45;;;;;;;1.70;1.40;;;;;;;18.61;45.93;102212.47;5979697;24;20008;-79
2021/05/29 18:49:11;;;;;;;4.85;2.50;;;;;;;18.57;45.98;102219.34;5953418;24;20058;-79
2021/05/29 18:51:41;;;;;;;3.35;2.20;;;;;;;18.56;46.20;102223.13;5949869;24;20008;-79
2021/05/29 18:54:07;;;;;;;3.20;1.60;;;;;;;18.57;46.29;102220.19;5928285;24;20012;-79
2021/05/29 18:56:32;;;;;;;3.50;1.80;;;;;;;18.57;46.49;102228.34;5949160;24;20005;-79
2021/05/29 18:59:19;;;;;;;4.65;1.58;;;;;;;18.56;46.49;102234.84;5949775;24;20020;-79
2021/05/29 19:09:58;;;;;;;3.20;1.50;;;;;;;18.38;47.19;102242.59;5899249;24;20096;-79
2021/05/29 19:12:24;;;;;;;2.92;1.50;;;;;;;18.39;47.42;102239.69;5926572;24;20036;-79
2021/05/29 19:17:39;;;;;;;2.55;1.70;;;;;;;18.39;47.05;102233.38;5955130;24;20036;-83
2021/05/29 19:20:07;;;;;;;3.13;1.45;;;;;;;18.31;47.03;102241.66;5928400;24;20039;-83
2021/05/29 20:46:45;;;;;;;7.03;3.30;;;;;;;16.47;62.72;102276.28;6038359;23;20007;-82
